sensor_id;sensor_type;location;lat;lon;timestamp;pressure;altitude;pressure_sealevel;temperature;humidity
37291;BME280;23175;-33.706;151.094;2023-07-31T00:00:18;100558.34;;;16.49;27.10
37291;BME280;23175;-33.706;151.094;2023-07-31T00:02:48;100560.00;;;18.08;25.35
37291;BME280;23175;-33.706;151.094;2023-07-31T00:05:18;100556.50;;;20.63;22.17
37291;BME280;23175;-33.706;151.094;2023-07-31T00:07:49;100557.63;;;20.73;20.56
37291;BME280;23175;-33.706;151.094;2023-07-31T00:10:19;100559.45;;;16.48;23.65
37291;BME280;23175;-33.706;151.094;2023-07-31T00:12:49;100560.65;;;16.96;23.84
37291;BME280;23175;-33.706;151.094;2023-07-31T00:15:20;100561.63;;;15.73;24.00
37291;BME280;23175;-33.706;151.094;2023-07-31T00:17:50;100551.99;;;20.01;21.93
37291;BME280;23175;-33.706;151.094;2023-07-31T00:20:21;100553.34;;;17.53;24.70
37291;BME280;23175;-33.706;151.094;2023-07-31T00:22:51;100560.62;;;17.63;25.23
37291;BME280;23175;-33.706;151.094;2023-07-31T00:25:21;100557.35;;;18.76;24.72
37291;BME280;23175;-33.706;151.094;2023-07-31T00:27:51;100556.21;;;16.11;26.67
37291;BME280;23175;-33.706;151.094;2023-07-31T00:30:20;100556.37;;;16.29;26.45
37291;BME280;23175;-33.706;151.094;2023-07-31T00:32:50;100559.02;;;16.47;25.96
37291;BME280;23175;-33.706;151.094;2023-07-31T00:35:20;100559.92;;;18.22;25.34
37291;BME280;23175;-33.706;151.094;2023-07-31T00:37:49;100552.93;;;18.24;25.01
37291;BME280;23175;-33.706;151.094;2023-07-31T00:40:19;100552.63;;;19.40;24.96
37291;BME280;23175;-33.706;151.094;2023-07-31T00:42:49;100549.01;;;18.31;25.39
37291;BME280;23175;-33.706;151.094;2023-07-31T00:45:20;100550.81;;;17.81;25.45
37291;BME280;23175;-33.706;151.094;2023-07-31T00:47:51;100548.90;;;14.22;27.52
37291;BME280;23175;-33.706;151.094;2023-07-31T00:50:21;100548.93;;;13.48;29.33
37291;BME280;23175;-33.706;151.094;2023-07-31T00:52:51;100547.77;;;13.93;28.19
37291;BME280;23175;-33.706;151.094;2023-07-31T00:55:22;100548.77;;;18.78;24.31
37291;BME280;23175;-33.706;151.094;2023-07-31T00:57:52;100544.71;;;14.24;26.11
37291;BME280;23175;-33.706;151.094;2023-07-31T01:00:23;100541.07;;;18.64;22.67
37291;BME280;23175;-33.706;151.094;2023-07-31T01:02:53;100534.83;;;20.78;21.15
37291;BME280;23175;-33.706;151.094;2023-07-31T01:05:29;100527.21;;;21.57;20.97
37291;BME280;23175;-33.706;151.094;2023-07-31T01:08:11;100519.99;;;21.04;21.33
37291;BME280;23175;-33.706;151.094;2023-07-31T01:10:56;100522.61;;;16.17;23.99
37291;BME280;23175;-33.706;151.094;2023-07-31T01:13:29;100516.00;;;16.20;22.94
37291;BME280;23175;-33.706;151.094;2023-07-31T01:15:59;100512.63;;;18.26;22.95
37291;BME280;23175;-33.706;151.094;2023-07-31T01:18:29;100510.90;;;17.28;23.09
37291;BME280;23175;-33.706;151.094;2023-07-31T01:21:18;100506.64;;;20.58;21.79
37291;BME280;23175;-33.706;151.094;2023-07-31T01:24:18;100501.24;;;18.63;23.17
37291;BME280;23175;-33.706;151.094;2023-07-31T01:27:01;100495.39;;;20.26;21.94
37291;BME280;23175;-33.706;151.094;2023-07-31T01:29:38;100494.30;;;17.68;24.41
37291;BME280;23175;-33.706;151.094;2023-07-31T01:32:10;100483.94;;;15.23;25.83
37291;BME280;23175;-33.706;151.094;2023-07-31T01:34:41;100476.53;;;15.02;26.17
37291;BME280;23175;-33.706;151.094;2023-07-31T01:37:11;100472.42;;;14.57;27.03
37291;BME280;23175;-33.706;151.094;2023-07-31T01:39:41;100469.32;;;15.88;25.71
37291;BME280;23175;-33.706;151.094;2023-07-31T01:42:16;100471.83;;;13.12;27.48
37291;BME280;23175;-33.706;151.094;2023-07-31T01:44:45;100464.15;;;15.56;26.84
37291;BME280;23175;-33.706;151.094;2023-07-31T01:47:15;100465.88;;;13.73;28.33
37291;BME280;23175;-33.706;151.094;2023-07-31T01:49:45;100463.42;;;17.27;25.57
37291;BME280;23175;-33.706;151.094;2023-07-31T01:52:15;100458.65;;;15.95;26.67
37291;BME280;23175;-33.706;151.094;2023-07-31T01:54:44;100454.59;;;16.03;26.25
37291;BME280;23175;-33.706;151.094;2023-07-31T01:57:14;100455.14;;;16.96;25.30
37291;BME280;23175;-33.706;151.094;2023-07-31T01:59:44;100448.78;;;14.61;27.59
37291;BME280;23175;-33.706;151.094;2023-07-31T02:02:14;100453.35;;;15.01;27.64
37291;BME280;23175;-33.706;151.094;2023-07-31T02:04:44;100448.20;;;14.00;28.49
37291;BME280;23175;-33.706;151.094;2023-07-31T02:07:13;100441.76;;;17.49;25.72
37291;BME280;23175;-33.706;151.094;2023-07-31T02:09:43;100434.59;;;15.49;27.00
37291;BME280;23175;-33.706;151.094;2023-07-31T02:12:13;100433.61;;;14.44;27.91
37291;BME280;23175;-33.706;151.094;2023-07-31T02:14:48;100431.34;;;14.43;27.73
37291;BME280;23175;-33.706;151.094;2023-07-31T02:17:18;100423.81;;;16.20;26.26
37291;BME280;23175;-33.706;151.094;2023-07-31T02:19:48;100418.53;;;14.83;28.09
37291;BME280;23175;-33.706;151.094;2023-07-31T02:22:18;100413.10;;;17.83;25.11
37291;BME280;23175;-33.706;151.094;2023-07-31T02:24:48;100408.66;;;14.57;28.46
37291;BME280;23175;-33.706;151.094;2023-07-31T02:27:19;100401.64;;;14.95;26.70
37291;BME280;23175;-33.706;151.094;2023-07-31T02:29:49;100399.79;;;15.86;26.56
37291;BME280;23175;-33.706;151.094;2023-07-31T02:32:19;100394.10;;;13.88;28.53
37291;BME280;23175;-33.706;151.094;2023-07-31T02:34:48;100390.41;;;13.96;28.64
37291;BME280;23175;-33.706;151.094;2023-07-31T02:37:19;100389.61;;;13.30;28.79
37291;BME280;23175;-33.706;151.094;2023-07-31T02:39:49;100389.81;;;17.13;26.59
37291;BME280;23175;-33.706;151.094;2023-07-31T02:42:19;100384.62;;;13.90;28.72
37291;BME280;23175;-33.706;151.094;2023-07-31T02:44:50;100380.84;;;15.80;27.35
37291;BME280;23175;-33.706;151.094;2023-07-31T02:47:20;100374.49;;;13.85;28.73
37291;BME280;23175;-33.706;151.094;2023-07-31T02:49:49;100364.94;;;14.11;28.03
37291;BME280;23175;-33.706;151.094;2023-07-31T02:52:19;100364.97;;;15.83;26.29
37291;BME280;23175;-33.706;151.094;2023-07-31T02:54:49;100363.54;;;15.01;27.70
37291;BME280;23175;-33.706;151.094;2023-07-31T02:57:19;100364.30;;;16.45;26.66
37291;BME280;23175;-33.706;151.094;2023-07-31T02:59:49;100361.99;;;15.04;27.46
37291;BME280;23175;-33.706;151.094;2023-07-31T03:02:18;100361.63;;;15.47;27.31
37291;BME280;23175;-33.706;151.094;2023-07-31T03:04:48;100353.51;;;15.53;26.78
37291;BME280;23175;-33.706;151.094;2023-07-31T03:07:18;100350.48;;;14.81;27.42
37291;BME280;23175;-33.706;151.094;2023-07-31T03:09:47;100348.14;;;14.94;27.88
37291;BME280;23175;-33.706;151.094;2023-07-31T03:12:18;100345.41;;;15.78;26.88
37291;BME280;23175;-33.706;151.094;2023-07-31T03:14:48;100346.85;;;15.43;27.26
37291;BME280;23175;-33.706;151.094;2023-07-31T03:17:19;100345.33;;;14.05;28.65
37291;BME280;23175;-33.706;151.094;2023-07-31T03:19:49;100338.92;;;14.93;27.89
37291;BME280;23175;-33.706;151.094;2023-07-31T03:22:19;100342.10;;;13.95;29.02
37291;BME280;23175;-33.706;151.094;2023-07-31T03:24:49;100338.70;;;15.58;27.33
37291;BME280;23175;-33.706;151.094;2023-07-31T03:27:19;100338.60;;;15.85;26.75
37291;BME280;23175;-33.706;151.094;2023-07-31T03:29:50;100335.27;;;16.79;26.34
37291;BME280;23175;-33.706;151.094;2023-07-31T03:32:20;100333.20;;;16.77;26.30
37291;BME280;23175;-33.706;151.094;2023-07-31T03:34:54;100333.51;;;15.88;26.29
37291;BME280;23175;-33.706;151.094;2023-07-31T03:37:24;100328.21;;;16.78;25.19
37291;BME280;23175;-33.706;151.094;2023-07-31T03:39:54;100324.69;;;14.24;27.95
37291;BME280;23175;-33.706;151.094;2023-07-31T03:42:23;100327.09;;;14.34;27.93
37291;BME280;23175;-33.706;151.094;2023-07-31T03:44:54;100323.20;;;16.08;26.84
37291;BME280;23175;-33.706;151.094;2023-07-31T03:47:23;100323.56;;;15.22;26.31
37291;BME280;23175;-33.706;151.094;2023-07-31T03:49:54;100321.36;;;16.45;25.44
37291;BME280;23175;-33.706;151.094;2023-07-31T03:52:23;100317.33;;;19.61;23.54
37291;BME280;23175;-33.706;151.094;2023-07-31T03:54:54;100318.37;;;17.20;25.05
37291;BME280;23175;-33.706;151.094;2023-07-31T03:57:24;100313.79;;;14.36;26.63
37291;BME280;23175;-33.706;151.094;2023-07-31T03:59:54;100317.36;;;15.32;26.85
37291;BME280;23175;-33.706;151.094;2023-07-31T04:02:24;100317.40;;;17.03;26.09
37291;BME280;23175;-33.706;151.094;2023-07-31T04:04:54;100314.30;;;16.49;25.29
37291;BME280;23175;-33.706;151.094;2023-07-31T04:07:24;100307.25;;;14.04;26.77
37291;BME280;23175;-33.706;151.094;2023-07-31T04:09:53;100305.44;;;18.13;23.54
37291;BME280;23175;-33.706;151.094;2023-07-31T04:12:23;100307.49;;;15.34;25.87
37291;BME280;23175;-33.706;151.094;2023-07-31T04:14:53;100304.67;;;18.34;24.45
37291;BME280;23175;-33.706;151.094;2023-07-31T04:17:23;100310.93;;;15.74;26.61
37291;BME280;23175;-33.706;151.094;2023-07-31T04:19:52;100310.78;;;15.45;26.68
37291;BME280;23175;-33.706;151.094;2023-07-31T04:22:28;100306.42;;;16.14;25.42
37291;BME280;23175;-33.706;151.094;2023-07-31T04:24:59;100304.11;;;15.73;25.94
37291;BME280;23175;-33.706;151.094;2023-07-31T04:27:29;100302.17;;;14.67;27.26
37291;BME280;23175;-33.706;151.094;2023-07-31T04:29:59;100301.84;;;15.78;26.22
37291;BME280;23175;-33.706;151.094;2023-07-31T04:32:28;100298.99;;;16.34;26.00
37291;BME280;23175;-33.706;151.094;2023-07-31T04:34:58;100298.21;;;15.85;26.54
37291;BME280;23175;-33.706;151.094;2023-07-31T04:37:27;100292.82;;;17.68;24.93
37291;BME280;23175;-33.706;151.094;2023-07-31T04:39:57;100295.27;;;16.71;25.27
37291;BME280;23175;-33.706;151.094;2023-07-31T04:42:27;100296.30;;;16.41;25.59
37291;BME280;23175;-33.706;151.094;2023-07-31T04:44:58;100288.79;;;17.74;25.14
37291;BME280;23175;-33.706;151.094;2023-07-31T04:47:28;100286.13;;;16.03;25.95
37291;BME280;23175;-33.706;151.094;2023-07-31T04:49:57;100279.23;;;14.51;26.71
37291;BME280;23175;-33.706;151.094;2023-07-31T04:52:27;100276.12;;;15.31;26.86
37291;BME280;23175;-33.706;151.094;2023-07-31T04:54:57;100274.45;;;16.08;25.56
37291;BME280;23175;-33.706;151.094;2023-07-31T04:57:30;100275.51;;;16.44;25.07
37291;BME280;23175;-33.706;151.094;2023-07-31T05:00:00;100276.89;;;15.52;26.61
37291;BME280;23175;-33.706;151.094;2023-07-31T05:02:30;100269.34;;;13.98;27.86
37291;BME280;23175;-33.706;151.094;2023-07-31T05:05:01;100276.01;;;16.98;25.64
37291;BME280;23175;-33.706;151.094;2023-07-31T05:07:30;100280.36;;;16.58;25.98
37291;BME280;23175;-33.706;151.094;2023-07-31T05:10:00;100280.39;;;14.20;28.09
37291;BME280;23175;-33.706;151.094;2023-07-31T05:12:30;100278.82;;;16.84;26.48
37291;BME280;23175;-33.706;151.094;2023-07-31T05:15:00;100277.91;;;16.15;26.08
37291;BME280;23175;-33.706;151.094;2023-07-31T05:17:30;100280.67;;;16.23;26.06
37291;BME280;23175;-33.706;151.094;2023-07-31T05:20:00;100282.76;;;16.41;25.57
37291;BME280;23175;-33.706;151.094;2023-07-31T05:22:29;100279.80;;;16.31;25.46
37291;BME280;23175;-33.706;151.094;2023-07-31T05:24:59;100277.87;;;17.49;24.66
37291;BME280;23175;-33.706;151.094;2023-07-31T05:27:29;100280.36;;;15.59;25.91
37291;BME280;23175;-33.706;151.094;2023-07-31T05:30:00;100286.88;;;17.14;25.20
37291;BME280;23175;-33.706;151.094;2023-07-31T05:32:30;100289.70;;;18.85;24.56
37291;BME280;23175;-33.706;151.094;2023-07-31T05:35:01;100291.48;;;19.13;24.22
37291;BME280;23175;-33.706;151.094;2023-07-31T05:37:31;100293.52;;;18.47;23.16
37291;BME280;23175;-33.706;151.094;2023-07-31T05:40:01;100293.69;;;19.54;23.19
37291;BME280;23175;-33.706;151.094;2023-07-31T05:42:32;100297.64;;;17.21;25.16
37291;BME280;23175;-33.706;151.094;2023-07-31T05:45:02;100299.92;;;16.47;25.61
37291;BME280;23175;-33.706;151.094;2023-07-31T05:47:33;100300.10;;;18.23;24.27
37291;BME280;23175;-33.706;151.094;2023-07-31T05:50:03;100299.36;;;18.89;24.50
37291;BME280;23175;-33.706;151.094;2023-07-31T05:52:33;100301.46;;;20.05;23.46
37291;BME280;23175;-33.706;151.094;2023-07-31T05:55:03;100299.27;;;17.03;25.14
37291;BME280;23175;-33.706;151.094;2023-07-31T05:57:34;100299.32;;;19.28;22.64
37291;BME280;23175;-33.706;151.094;2023-07-31T06:00:05;100301.29;;;20.88;22.90
37291;BME280;23175;-33.706;151.094;2023-07-31T06:02:35;100308.63;;;18.77;24.61
37291;BME280;23175;-33.706;151.094;2023-07-31T06:05:07;100301.77;;;18.44;24.70
37291;BME280;23175;-33.706;151.094;2023-07-31T06:07:37;100302.81;;;19.06;24.82
37291;BME280;23175;-33.706;151.094;2023-07-31T06:10:07;100306.48;;;18.53;25.45
37291;BME280;23175;-33.706;151.094;2023-07-31T06:12:37;100310.68;;;19.47;24.66
37291;BME280;23175;-33.706;151.094;2023-07-31T06:15:08;100315.52;;;17.01;27.48
37291;BME280;23175;-33.706;151.094;2023-07-31T06:17:38;100316.38;;;18.15;26.85
37291;BME280;23175;-33.706;151.094;2023-07-31T06:20:09;100320.68;;;15.72;28.70
37291;BME280;23175;-33.706;151.094;2023-07-31T06:22:39;100314.64;;;19.48;25.95
37291;BME280;23175;-33.706;151.094;2023-07-31T06:25:09;100312.40;;;20.43;25.60
37291;BME280;23175;-33.706;151.094;2023-07-31T06:27:40;100312.53;;;16.14;27.44
37291;BME280;23175;-33.706;151.094;2023-07-31T06:30:15;100313.44;;;16.90;25.88
37291;BME280;23175;-33.706;151.094;2023-07-31T06:32:45;100315.33;;;19.41;24.42
37291;BME280;23175;-33.706;151.094;2023-07-31T06:35:16;100316.29;;;18.58;26.17
37291;BME280;23175;-33.706;151.094;2023-07-31T06:37:46;100315.50;;;19.42;25.83
37291;BME280;23175;-33.706;151.094;2023-07-31T06:40:17;100314.83;;;19.55;26.14
37291;BME280;23175;-33.706;151.094;2023-07-31T06:42:47;100315.67;;;18.96;26.87
37291;BME280;23175;-33.706;151.094;2023-07-31T06:45:16;100319.25;;;19.36;26.94
37291;BME280;23175;-33.706;151.094;2023-07-31T06:47:47;100322.92;;;17.71;28.49
37291;BME280;23175;-33.706;151.094;2023-07-31T06:50:17;100327.71;;;19.69;26.81
37291;BME280;23175;-33.706;151.094;2023-07-31T06:52:48;100332.93;;;18.39;27.81
37291;BME280;23175;-33.706;151.094;2023-07-31T06:55:19;100341.97;;;19.13;27.61
37291;BME280;23175;-33.706;151.094;2023-07-31T06:57:51;100344.49;;;19.99;27.21
37291;BME280;23175;-33.706;151.094;2023-07-31T07:00:22;100344.42;;;19.58;27.09
37291;BME280;23175;-33.706;151.094;2023-07-31T07:02:53;100344.36;;;19.42;27.08
37291;BME280;23175;-33.706;151.094;2023-07-31T07:05:23;100345.53;;;19.22;27.26
37291;BME280;23175;-33.706;151.094;2023-07-31T07:07:53;100347.31;;;19.47;27.43
37291;BME280;23175;-33.706;151.094;2023-07-31T07:10:23;100346.03;;;19.47;27.18
37291;BME280;23175;-33.706;151.094;2023-07-31T07:12:53;100347.40;;;19.09;27.31
37291;BME280;23175;-33.706;151.094;2023-07-31T07:15:24;100345.98;;;19.07;27.46
37291;BME280;23175;-33.706;151.094;2023-07-31T07:17:54;100347.27;;;19.06;27.80
37291;BME280;23175;-33.706;151.094;2023-07-31T07:20:24;100345.03;;;18.50;28.22
37291;BME280;23175;-33.706;151.094;2023-07-31T07:22:53;100345.19;;;18.78;28.37
37291;BME280;23175;-33.706;151.094;2023-07-31T07:25:23;100348.19;;;18.65;28.11
37291;BME280;23175;-33.706;151.094;2023-07-31T07:27:54;100352.34;;;18.36;29.27
37291;BME280;23175;-33.706;151.094;2023-07-31T07:30:24;100357.82;;;18.53;29.34
37291;BME280;23175;-33.706;151.094;2023-07-31T07:32:54;100360.87;;;18.41;29.58
37291;BME280;23175;-33.706;151.094;2023-07-31T07:35:24;100366.64;;;18.20;30.04
37291;BME280;23175;-33.706;151.094;2023-07-31T07:37:54;100365.93;;;17.01;31.50
37291;BME280;23175;-33.706;151.094;2023-07-31T07:40:23;100366.25;;;17.99;30.60
37291;BME280;23175;-33.706;151.094;2023-07-31T07:42:53;100371.95;;;18.34;30.68
37291;BME280;23175;-33.706;151.094;2023-07-31T07:45:23;100374.97;;;18.11;30.45
37291;BME280;23175;-33.706;151.094;2023-07-31T07:47:52;100378.63;;;17.86;30.77
37291;BME280;23175;-33.706;151.094;2023-07-31T07:50:27;100380.54;;;17.59;31.01
37291;BME280;23175;-33.706;151.094;2023-07-31T07:52:57;100384.71;;;17.67;30.82
37291;BME280;23175;-33.706;151.094;2023-07-31T07:55:26;100384.00;;;17.58;30.66
37291;BME280;23175;-33.706;151.094;2023-07-31T07:57:56;100390.74;;;17.71;30.94
37291;BME280;23175;-33.706;151.094;2023-07-31T08:00:26;100395.67;;;17.43;31.37
37291;BME280;23175;-33.706;151.094;2023-07-31T08:02:55;100395.50;;;17.66;31.17
37291;BME280;23175;-33.706;151.094;2023-07-31T08:05:25;100403.71;;;17.97;31.54
37291;BME280;23175;-33.706;151.094;2023-07-31T08:07:56;100402.30;;;17.28;32.34
37291;BME280;23175;-33.706;151.094;2023-07-31T08:10:26;100405.64;;;17.31;31.87
37291;BME280;23175;-33.706;151.094;2023-07-31T08:12:55;100408.39;;;16.74;31.92
37291;BME280;23175;-33.706;151.094;2023-07-31T08:15:25;100410.29;;;17.77;31.51
37291;BME280;23175;-33.706;151.094;2023-07-31T08:18:00;100415.31;;;17.65;31.78
37291;BME280;23175;-33.706;151.094;2023-07-31T08:20:29;100415.11;;;17.07;32.17
37291;BME280;23175;-33.706;151.094;2023-07-31T08:22:59;100416.45;;;16.95;32.41
37291;BME280;23175;-33.706;151.094;2023-07-31T08:25:30;100420.62;;;17.23;32.52
37291;BME280;23175;-33.706;151.094;2023-07-31T08:27:59;100422.90;;;16.52;32.50
37291;BME280;23175;-33.706;151.094;2023-07-31T08:30:29;100423.06;;;16.33;32.49
37291;BME280;23175;-33.706;151.094;2023-07-31T08:32:59;100429.54;;;16.75;31.61
37291;BME280;23175;-33.706;151.094;2023-07-31T08:35:29;100434.67;;;16.39;32.30
37291;BME280;23175;-33.706;151.094;2023-07-31T08:37:59;100438.52;;;16.56;32.18
37291;BME280;23175;-33.706;151.094;2023-07-31T08:40:30;100439.80;;;16.71;32.18
37291;BME280;23175;-33.706;151.094;2023-07-31T08:43:00;100438.28;;;16.44;32.34
37291;BME280;23175;-33.706;151.094;2023-07-31T08:45:31;100436.92;;;16.56;32.38
37291;BME280;23175;-33.706;151.094;2023-07-31T08:48:02;100440.50;;;16.38;32.88
37291;BME280;23175;-33.706;151.094;2023-07-31T08:50:32;100441.82;;;16.28;32.63
37291;BME280;23175;-33.706;151.094;2023-07-31T08:53:03;100441.22;;;16.18;32.69
37291;BME280;23175;-33.706;151.094;2023-07-31T08:55:34;100440.16;;;15.84;32.96
37291;BME280;23175;-33.706;151.094;2023-07-31T08:58:05;100442.13;;;16.42;32.67
37291;BME280;23175;-33.706;151.094;2023-07-31T09:00:35;100442.16;;;16.08;33.30
37291;BME280;23175;-33.706;151.094;2023-07-31T09:03:13;100446.46;;;15.73;33.65
37291;BME280;23175;-33.706;151.094;2023-07-31T09:05:45;100447.02;;;15.79;34.10
37291;BME280;23175;-33.706;151.094;2023-07-31T09:08:17;100449.37;;;15.12;34.17
37291;BME280;23175;-33.706;151.094;2023-07-31T09:10:48;100450.35;;;16.00;34.40
37291;BME280;23175;-33.706;151.094;2023-07-31T09:13:18;100452.76;;;15.32;34.32
37291;BME280;23175;-33.706;151.094;2023-07-31T09:15:48;100456.19;;;15.45;34.52
37291;BME280;23175;-33.706;151.094;2023-07-31T09:18:18;100459.70;;;15.61;34.12
37291;BME280;23175;-33.706;151.094;2023-07-31T09:21:00;100462.62;;;15.62;33.98
37291;BME280;23175;-33.706;151.094;2023-07-31T09:23:41;100466.40;;;15.25;34.12
37291;BME280;23175;-33.706;151.094;2023-07-31T09:26:31;100468.51;;;14.59;34.60
37291;BME280;23175;-33.706;151.094;2023-07-31T09:29:04;100474.92;;;15.91;34.13
37291;BME280;23175;-33.706;151.094;2023-07-31T09:31:44;100476.86;;;15.50;34.55
37291;BME280;23175;-33.706;151.094;2023-07-31T09:34:14;100477.81;;;15.28;34.61
37291;BME280;23175;-33.706;151.094;2023-07-31T09:36:45;100478.81;;;15.61;34.42
37291;BME280;23175;-33.706;151.094;2023-07-31T09:39:17;100480.26;;;15.48;34.62
37291;BME280;23175;-33.706;151.094;2023-07-31T09:41:54;100476.38;;;15.87;34.74
37291;BME280;23175;-33.706;151.094;2023-07-31T09:44:38;100479.19;;;15.01;35.00
37291;BME280;23175;-33.706;151.094;2023-07-31T09:47:22;100482.85;;;15.13;35.26
37291;BME280;23175;-33.706;151.094;2023-07-31T09:49:52;100483.52;;;15.34;35.26
37291;BME280;23175;-33.706;151.094;2023-07-31T09:52:22;100486.45;;;15.45;35.16
37291;BME280;23175;-33.706;151.094;2023-07-31T09:54:52;100489.66;;;14.72;35.47
37291;BME280;23175;-33.706;151.094;2023-07-31T09:57:23;100495.32;;;15.04;35.83
37291;BME280;23175;-33.706;151.094;2023-07-31T09:59:54;100498.45;;;14.72;35.80
37291;BME280;23175;-33.706;151.094;2023-07-31T10:02:25;100502.93;;;15.45;35.35
37291;BME280;23175;-33.706;151.094;2023-07-31T10:04:58;100505.38;;;14.73;35.93
37291;BME280;23175;-33.706;151.094;2023-07-31T10:07:33;100508.95;;;14.99;36.13
37291;BME280;23175;-33.706;151.094;2023-07-31T10:10:09;100507.44;;;14.30;37.01
37291;BME280;23175;-33.706;151.094;2023-07-31T10:12:39;100511.08;;;14.96;36.30
37291;BME280;23175;-33.706;151.094;2023-07-31T10:15:10;100508.89;;;15.01;36.02
37291;BME280;23175;-33.706;151.094;2023-07-31T10:17:41;100506.13;;;14.21;36.63
37291;BME280;23175;-33.706;151.094;2023-07-31T10:20:12;100508.73;;;13.89;36.68
37291;BME280;23175;-33.706;151.094;2023-07-31T10:22:43;100513.03;;;14.32;36.81
37291;BME280;23175;-33.706;151.094;2023-07-31T10:25:13;100514.58;;;12.49;39.33
37291;BME280;23175;-33.706;151.094;2023-07-31T10:27:50;100528.61;;;14.36;37.11
37291;BME280;23175;-33.706;151.094;2023-07-31T10:30:25;100533.63;;;12.78;39.48
37291;BME280;23175;-33.706;151.094;2023-07-31T10:32:57;100531.95;;;12.47;39.87
37291;BME280;23175;-33.706;151.094;2023-07-31T10:35:27;100534.74;;;13.78;38.48
37291;BME280;23175;-33.706;151.094;2023-07-31T10:38:10;100534.76;;;13.84;38.93
37291;BME280;23175;-33.706;151.094;2023-07-31T10:40:41;100539.83;;;13.37;38.64
37291;BME280;23175;-33.706;151.094;2023-07-31T10:43:25;100548.43;;;13.62;38.07
37291;BME280;23175;-33.706;151.094;2023-07-31T10:45:55;100551.69;;;14.06;38.02
37291;BME280;23175;-33.706;151.094;2023-07-31T10:48:25;100554.54;;;13.45;38.29
37291;BME280;23175;-33.706;151.094;2023-07-31T10:51:08;100557.14;;;13.59;38.67
37291;BME280;23175;-33.706;151.094;2023-07-31T10:53:39;100559.61;;;13.89;38.74
37291;BME280;23175;-33.706;151.094;2023-07-31T10:56:10;100560.84;;;13.51;38.89
37291;BME280;23175;-33.706;151.094;2023-07-31T10:58:40;100567.26;;;13.28;38.64
37291;BME280;23175;-33.706;151.094;2023-07-31T11:01:13;100570.61;;;13.47;38.41
37291;BME280;23175;-33.706;151.094;2023-07-31T11:03:44;100574.98;;;13.70;38.58
37291;BME280;23175;-33.706;151.094;2023-07-31T11:06:15;100576.15;;;13.59;38.70
37291;BME280;23175;-33.706;151.094;2023-07-31T11:08:47;100576.18;;;14.04;38.42
37291;BME280;23175;-33.706;151.094;2023-07-31T11:11:18;100577.75;;;13.92;38.62
37291;BME280;23175;-33.706;151.094;2023-07-31T11:13:50;100578.06;;;13.69;38.39
37291;BME280;23175;-33.706;151.094;2023-07-31T11:16:21;100578.20;;;13.96;38.41
37291;BME280;23175;-33.706;151.094;2023-07-31T11:18:57;100579.22;;;13.71;38.63
37291;BME280;23175;-33.706;151.094;2023-07-31T11:21:27;100583.62;;;12.34;40.29
37291;BME280;23175;-33.706;151.094;2023-07-31T11:23:58;100590.17;;;13.32;38.87
37291;BME280;23175;-33.706;151.094;2023-07-31T11:26:29;100597.41;;;13.53;38.59
37291;BME280;23175;-33.706;151.094;2023-07-31T11:28:59;100601.29;;;13.66;38.22
37291;BME280;23175;-33.706;151.094;2023-07-31T11:31:29;100604.11;;;13.14;38.37
37291;BME280;23175;-33.706;151.094;2023-07-31T11:34:07;100603.99;;;13.49;38.52
37291;BME280;23175;-33.706;151.094;2023-07-31T11:36:37;100607.31;;;13.79;38.39
37291;BME280;23175;-33.706;151.094;2023-07-31T11:39:08;100607.91;;;13.98;38.18
37291;BME280;23175;-33.706;151.094;2023-07-31T11:41:42;100603.87;;;13.56;38.55
37291;BME280;23175;-33.706;151.094;2023-07-31T11:44:11;100602.85;;;13.31;38.20
37291;BME280;23175;-33.706;151.094;2023-07-31T11:46:41;100603.24;;;13.89;37.88
37291;BME280;23175;-33.706;151.094;2023-07-31T11:49:12;100605.20;;;13.26;38.26
37291;BME280;23175;-33.706;151.094;2023-07-31T11:51:42;100607.51;;;13.59;38.09
37291;BME280;23175;-33.706;151.094;2023-07-31T11:54:12;100606.44;;;12.78;38.37
37291;BME280;23175;-33.706;151.094;2023-07-31T11:56:42;100603.10;;;13.54;38.12
37291;BME280;23175;-33.706;151.094;2023-07-31T11:59:14;100604.73;;;12.71;38.57
37291;BME280;23175;-33.706;151.094;2023-07-31T12:01:44;100605.71;;;13.45;38.48
37291;BME280;23175;-33.706;151.094;2023-07-31T12:04:15;100605.09;;;13.61;38.06
37291;BME280;23175;-33.706;151.094;2023-07-31T12:06:49;100606.23;;;13.11;38.75
37291;BME280;23175;-33.706;151.094;2023-07-31T12:09:22;100608.60;;;13.14;38.82
37291;BME280;23175;-33.706;151.094;2023-07-31T12:11:52;100611.36;;;13.26;38.55
37291;BME280;23175;-33.706;151.094;2023-07-31T12:14:28;100615.28;;;13.29;38.16
37291;BME280;23175;-33.706;151.094;2023-07-31T12:16:58;100615.09;;;13.16;38.09
37291;BME280;23175;-33.706;151.094;2023-07-31T12:19:29;100616.03;;;13.25;37.91
37291;BME280;23175;-33.706;151.094;2023-07-31T12:21:59;100618.21;;;13.10;37.98
37291;BME280;23175;-33.706;151.094;2023-07-31T12:24:29;100617.28;;;12.84;38.62
37291;BME280;23175;-33.706;151.094;2023-07-31T12:26:59;100620.21;;;13.17;38.21
37291;BME280;23175;-33.706;151.094;2023-07-31T12:29:36;100618.07;;;13.19;38.09
37291;BME280;23175;-33.706;151.094;2023-07-31T12:32:20;100615.63;;;13.09;37.90
37291;BME280;23175;-33.706;151.094;2023-07-31T12:34:50;100611.09;;;13.16;38.00
37291;BME280;23175;-33.706;151.094;2023-07-31T12:37:21;100609.12;;;13.06;37.87
37291;BME280;23175;-33.706;151.094;2023-07-31T12:39:51;100610.69;;;12.96;38.31